Time;durP1;ratioP1;P1;durP2;ratioP2;P2;SDS_P1;SDS_P2;PMS_P1;PMS_P2;Temp;Humidity;BMP_temperature;BMP_pressure;BME280_temperature;BME280_humidity;BME280_pressure;Samples;Min_cycle;Max_cycle;Signal;HPM_P1;HPM_P2
2024/01/06 00:01:47;;;;;;;17.15;7.05;;;;;;;-148.88;100.00;-17125.47;5059585;28;20078;-81
2024/01/06 00:04:13;;;;;;;16.35;7.05;;;;;;;-148.88;100.00;-17125.47;5057376;28;20029;-82
2024/01/06 00:06:38;;;;;;;12.98;7.25;;;;;;;-148.88;100.00;-17125.47;5039407;28;20047;-82
2024/01/06 00:09:03;;;;;;;16.85;7.18;;;;;;;-148.88;100.00;-17125.47;5058790;28;20025;-82
2024/01/06 00:11:29;;;;;;;19.52;7.20;;;;;;;-148.88;100.00;-17125.47;5057474;28;20052;-81
2024/01/06 00:13:54;;;;;;;13.55;6.68;;;;;;;-148.88;100.00;-17125.47;5039442;28;20017;-82
2024/01/06 00:16:20;;;;;;;17.13;7.35;;;;;;;-148.88;100.00;-17125.47;5057061;28;20027;-82
2024/01/06 00:18:46;;;;;;;16.38;6.22;;;;;;;-148.88;100.00;-17125.47;5039978;28;20029;-81
2024/01/06 00:21:11;;;;;;;13.90;6.38;;;;;;;-148.88;100.00;-17125.47;5057509;28;20067;-81
2024/01/06 00:23:37;;;;;;;16.73;6.72;;;;;;;-148.88;100.00;-17125.47;5056953;28;20032;-82
2024/01/06 00:26:03;;;;;;;17.20;6.40;;;;;;;-148.88;100.00;-17125.47;5040987;28;20075;-82
2024/01/06 00:28:29;;;;;;;14.77;5.57;;;;;;;-148.88;100.00;-17125.47;5042039;28;20555;-82
2024/01/06 00:30:55;;;;;;;16.15;6.85;;;;;;;-148.88;100.00;-17125.47;5057753;28;20049;-82
2024/01/06 00:33:20;;;;;;;15.75;5.68;;;;;;;-148.88;100.00;-17125.47;5055865;28;20106;-82
2024/01/06 00:35:45;;;;;;;11.32;4.97;;;;;;;-148.88;100.00;-17125.47;5038827;28;20108;-82
2024/01/06 00:38:11;;;;;;;15.23;6.40;;;;;;;-148.88;100.00;-17125.47;5040092;28;20079;-82
2024/01/06 00:40:37;;;;;;;14.65;6.03;;;;;;;-148.88;100.00;-17125.47;5039344;28;20021;-82
2024/01/06 00:43:02;;;;;;;14.10;5.90;;;;;;;-148.88;100.00;-17125.47;5039821;28;20024;-81
2024/01/06 00:45:27;;;;;;;19.65;12.63;;;;;;;-148.88;100.00;-17125.47;5039087;28;20046;-82
2024/01/06 00:47:53;;;;;;;16.45;6.50;;;;;;;-148.88;100.00;-17125.47;5057194;28;20131;-81
2024/01/06 00:50:21;;;;;;;13.50;5.53;;;;;;;-148.88;100.00;-17125.47;5038738;28;20051;-81
2024/01/06 00:52:46;;;;;;;17.65;5.43;;;;;;;-148.88;100.00;-17125.47;5057471;28;20108;-81
2024/01/06 00:55:11;;;;;;;17.00;5.70;;;;;;;-148.88;100.00;-17125.47;5037467;28;20415;-81
2024/01/06 00:57:37;;;;;;;12.18;5.63;;;;;;;-148.88;100.00;-17125.47;5055407;28;20024;-82
2024/01/06 01:00:05;;;;;;;16.20;5.93;;;;;;;-148.88;100.00;-17125.47;5055657;28;20423;-81
2024/01/06 01:02:30;;;;;;;14.90;7.10;;;;;;;-148.88;100.00;-17125.47;5037751;28;20025;-81
2024/01/06 01:04:57;;;;;;;16.10;6.93;;;;;;;-148.88;100.00;-17125.47;5037451;28;20407;-81
2024/01/06 01:07:22;;;;;;;14.93;6.30;;;;;;;-148.88;100.00;-17125.47;5055498;28;20036;-81
2024/01/06 01:09:47;;;;;;;14.98;6.45;;;;;;;-148.88;100.00;-17125.47;5053439;28;20020;-81
2024/01/06 01:12:13;;;;;;;13.48;5.78;;;;;;;-148.88;100.00;-17125.47;5053106;28;20422;-81
2024/01/06 01:14:38;;;;;;;16.75;6.53;;;;;;;-148.88;100.00;-17125.47;5053133;28;20025;-81
2024/01/06 01:17:04;;;;;;;17.80;6.80;;;;;;;-148.88;100.00;-17125.47;5052961;28;20372;-81
2024/01/06 01:19:29;;;;;;;15.00;6.03;;;;;;;-148.88;100.00;-17125.47;5035005;28;20031;-81
2024/01/06 01:21:55;;;;;;;15.93;6.28;;;;;;;-148.88;100.00;-17125.47;5035264;28;20104;-81
2024/01/06 01:24:22;;;;;;;14.32;5.88;;;;;;;-148.88;100.00;-17125.47;5052975;28;20024;-81
2024/01/06 01:26:47;;;;;;;17.80;6.78;;;;;;;-148.88;100.00;-17125.47;5052771;28;20021;-81
2024/01/06 01:29:12;;;;;;;15.70;6.18;;;;;;;-148.88;100.00;-17125.47;5053289;28;20043;-81
2024/01/06 01:31:39;;;;;;;15.10;6.70;;;;;;;-148.88;100.00;-17125.47;5035343;28;20045;-81
2024/01/06 01:34:04;;;;;;;13.63;6.10;;;;;;;-148.88;100.00;-17125.47;5034944;28;20044;-81
2024/01/06 01:36:29;;;;;;;16.20;6.15;;;;;;;-148.88;100.00;-17125.47;5034954;28;20023;-81
2024/01/06 01:38:55;;;;;;;14.27;5.53;;;;;;;-148.88;100.00;-17125.47;5053278;28;20025;-81
2024/01/06 01:41:20;;;;;;;14.48;6.30;;;;;;;-148.88;100.00;-17125.47;5053352;28;20495;-82
2024/01/06 01:43:46;;;;;;;14.35;6.10;;;;;;;-148.88;100.00;-17125.47;5054477;28;20020;-81
2024/01/06 01:46:11;;;;;;;12.63;5.93;;;;;;;-148.88;100.00;-17125.47;5052863;28;20080;-81
2024/01/06 01:48:37;;;;;;;16.60;5.28;;;;;;;-148.88;100.00;-17125.47;5052775;28;20444;-81
2024/01/06 01:51:03;;;;;;;14.38;6.30;;;;;;;-148.88;100.00;-17125.47;5052893;28;20498;-81
2024/01/06 01:53:29;;;;;;;13.40;5.50;;;;;;;-148.88;100.00;-17125.47;5053039;28;20436;-81
2024/01/06 01:55:56;;;;;;;16.42;6.47;;;;;;;-148.88;100.00;-17125.47;5035013;28;20123;-81
2024/01/06 01:58:22;;;;;;;12.70;5.50;;;;;;;-148.88;100.00;-17125.47;5036089;28;20033;-81
2024/01/06 02:00:47;;;;;;;12.55;5.32;;;;;;;-148.88;100.00;-17125.47;5035578;28;20025;-81
2024/01/06 02:03:13;;;;;;;14.73;6.63;;;;;;;-148.88;100.00;-17125.47;5034912;28;20052;-81
2024/01/06 02:05:38;;;;;;;16.05;7.25;;;;;;;-148.88;100.00;-17125.47;5052690;28;20399;-81
2024/01/06 02:08:05;;;;;;;19.25;6.40;;;;;;;-148.88;100.00;-17125.47;5034910;28;20017;-81
2024/01/06 02:10:30;;;;;;;13.60;6.00;;;;;;;-148.88;100.00;-17125.47;5034512;28;20020;-81
2024/01/06 02:12:56;;;;;;;14.15;6.15;;;;;;;-148.88;100.00;-17125.47;5052493;28;20392;-81
2024/01/06 02:15:21;;;;;;;13.10;5.35;;;;;;;-148.88;100.00;-17125.47;5053406;28;20052;-81
2024/01/06 02:17:46;;;;;;;13.52;5.50;;;;;;;-148.88;100.00;-17125.47;5054985;28;20503;-81
2024/01/06 02:20:13;;;;;;;15.50;6.88;;;;;;;-148.88;100.00;-17125.47;5053653;28;20034;-81
2024/01/06 02:22:38;;;;;;;16.23;5.70;;;;;;;-148.88;100.00;-17125.47;5052442;28;20206;-80
2024/01/06 02:25:12;;;;;;;13.40;5.20;;;;;;;-148.88;100.00;-17125.47;5034350;28;20531;-81
2024/01/06 02:27:37;;;;;;;15.68;5.68;;;;;;;-148.88;100.00;-17125.47;5034434;28;20032;-81
2024/01/06 02:30:03;;;;;;;13.73;5.85;;;;;;;-148.88;100.00;-17125.47;5052566;28;20026;-80
2024/01/06 02:32:28;;;;;;;13.93;5.32;;;;;;;-148.88;100.00;-17125.47;5034429;28;20429;-81
2024/01/06 02:34:56;;;;;;;13.15;5.55;;;;;;;-148.88;100.00;-17125.47;5034405;28;20503;-81
2024/01/06 02:37:21;;;;;;;17.27;6.53;;;;;;;-148.88;100.00;-17125.47;5034399;28;20082;-81
2024/01/06 02:39:46;;;;;;;15.05;5.82;;;;;;;-148.88;100.00;-17125.47;5036221;28;20116;-81
2024/01/06 02:42:12;;;;;;;15.80;6.05;;;;;;;-148.88;100.00;-17125.47;5056065;28;20373;-81
2024/01/06 02:44:37;;;;;;;15.43;6.30;;;;;;;-148.88;100.00;-17125.47;5038287;28;20020;-81
2024/01/06 02:47:02;;;;;;;12.75;6.28;;;;;;;-148.88;100.00;-17125.47;5056459;28;20025;-81
2024/01/06 02:49:28;;;;;;;15.98;6.38;;;;;;;-148.88;100.00;-17125.47;5038203;28;20017;-81
2024/01/06 02:51:53;;;;;;;16.83;6.10;;;;;;;-148.88;100.00;-17125.47;5058534;28;20070;-81
2024/01/06 02:54:18;;;;;;;15.52;6.47;;;;;;;-148.88;100.00;-17125.47;5058651;28;20082;-81
2024/01/06 02:56:44;;;;;;;17.33;6.82;;;;;;;-148.88;100.00;-17125.47;5056069;28;20083;-81
2024/01/06 02:59:09;;;;;;;16.13;6.32;;;;;;;-148.88;100.00;-17125.47;5037700;28;20087;-80
2024/01/06 03:01:35;;;;;;;18.65;6.32;;;;;;;-148.88;100.00;-17125.47;5037552;28;20440;-80
2024/01/06 03:04:00;;;;;;;13.48;5.32;;;;;;;-148.88;100.00;-17125.47;5037477;28;20020;-81
2024/01/06 03:06:25;;;;;;;13.82;5.65;;;;;;;-148.88;100.00;-17125.47;5037554;28;20395;-81
2024/01/06 03:08:51;;;;;;;13.77;6.32;;;;;;;-148.88;100.00;-17125.47;5037541;28;20120;-81
2024/01/06 03:11:16;;;;;;;18.10;6.95;;;;;;;-148.88;100.00;-17125.47;5055333;28;20112;-81
2024/01/06 03:13:41;;;;;;;15.80;6.47;;;;;;;-148.88;100.00;-17125.47;5055818;28;20043;-81
2024/01/06 03:16:07;;;;;;;15.32;5.72;;;;;;;-148.88;100.00;-17125.47;5055434;28;20036;-81
2024/01/06 03:18:32;;;;;;;12.55;6.15;;;;;;;-148.88;100.00;-17125.47;5055512;28;20024;-81
2024/01/06 03:20:57;;;;;;;17.73;6.22;;;;;;;-148.88;100.00;-17125.47;5055377;28;20484;-81
2024/01/06 03:23:23;;;;;;;15.45;5.82;;;;;;;-148.88;100.00;-17125.47;5055385;28;20063;-81
2024/01/06 03:25:48;;;;;;;14.82;6.57;;;;;;;-148.88;100.00;-17125.47;5057927;28;20049;-81
2024/01/06 03:28:13;;;;;;;13.75;5.60;;;;;;;-148.88;100.00;-17125.47;5058446;28;20104;-81
2024/01/06 03:30:39;;;;;;;19.13;6.65;;;;;;;-148.88;100.00;-17125.47;5039323;28;20029;-81
2024/01/06 03:33:04;;;;;;;15.73;6.82;;;;;;;-148.88;100.00;-17125.47;5055111;28;20100;-81
2024/01/06 03:35:29;;;;;;;15.63;6.90;;;;;;;-148.88;100.00;-17125.47;5054927;28;20033;-81
2024/01/06 03:37:55;;;;;;;16.88;6.43;;;;;;;-148.88;100.00;-17125.47;5037215;28;20029;-81
2024/01/06 03:40:20;;;;;;;16.42;6.30;;;;;;;-148.88;100.00;-17125.47;5055114;28;20100;-80
2024/01/06 03:42:46;;;;;;;17.40;7.53;;;;;;;-148.88;100.00;-17125.47;5055035;28;20036;-81
2024/01/06 04:16:14;;;;;;;21.17;7.63;;;;;;;-148.88;100.00;-17125.47;5054649;28;20036;-81
2024/01/06 04:45:34;;;;;;;9.23;3.42;;;;;;;-148.88;100.00;-17125.47;5054169;28;20098;-81
2024/01/06 04:47:59;;;;;;;7.93;2.83;;;;;;;-148.88;100.00;-17125.47;5035681;28;20438;-81
2024/01/06 04:50:25;;;;;;;10.23;3.60;;;;;;;-148.88;100.00;-17125.47;5053538;28;20123;-81
2024/01/06 04:52:50;;;;;;;8.45;3.40;;;;;;;-148.88;100.00;-17125.47;5035684;28;20381;-81
2024/01/06 04:55:15;;;;;;;7.13;2.75;;;;;;;-148.88;100.00;-17125.47;5053417;28;20116;-81
2024/01/06 04:57:41;;;;;;;8.38;3.15;;;;;;;-148.88;100.00;-17125.47;5054046;28;20039;-81
2024/01/06 05:00:10;;;;;;;7.97;2.83;;;;;;;-148.88;100.00;-17125.47;5035327;28;20395;-81
2024/01/06 05:02:36;;;;;;;7.55;2.60;;;;;;;-148.88;100.00;-17125.47;5053198;28;20028;-81
2024/01/06 05:05:01;;;;;;;5.55;2.10;;;;;;;-148.88;100.00;-17125.47;5053379;28;20029;-81
2024/01/06 05:07:26;;;;;;;6.45;2.53;;;;;;;-148.88;100.00;-17125.47;5055641;28;20017;-82
2024/01/06 05:09:51;;;;;;;5.43;2.90;;;;;;;-148.88;100.00;-17125.47;5056424;28;20054;-82
2024/01/06 05:12:17;;;;;;;6.60;2.53;;;;;;;-148.88;100.00;-17125.47;5055521;28;20028;-82
2024/01/06 05:14:42;;;;;;;7.43;2.95;;;;;;;-148.88;100.00;-17125.47;5056303;28;20024;-81
2024/01/06 05:17:08;;;;;;;8.02;2.78;;;;;;;-148.88;100.00;-17125.47;5055695;28;20077;-82
2024/01/06 05:19:34;;;;;;;6.90;2.75;;;;;;;-148.88;100.00;-17125.47;5054401;28;20480;-81
2024/01/06 05:21:59;;;;;;;7.15;2.83;;;;;;;-148.88;100.00;-17125.47;5053056;28;20032;-81
2024/01/06 05:24:25;;;;;;;6.95;2.33;;;;;;;-148.88;100.00;-17125.47;5053135;28;20112;-81
2024/01/06 05:26:50;;;;;;;9.05;3.40;;;;;;;-148.88;100.00;-17125.47;5052989;28;20029;-81
2024/01/06 05:29:15;;;;;;;8.00;2.55;;;;;;;-148.88;100.00;-17125.47;5053263;28;20091;-81
2024/01/06 05:31:41;;;;;;;7.78;2.53;;;;;;;-148.88;100.00;-17125.47;5053356;28;20496;-81
2024/01/06 05:34:06;;;;;;;8.02;2.38;;;;;;;-148.88;100.00;-17125.47;5035402;28;20071;-81
2024/01/06 05:36:32;;;;;;;7.32;3.15;;;;;;;-148.88;100.00;-17125.47;5055982;28;20039;-82
2024/01/06 05:38:57;;;;;;;10.32;3.28;;;;;;;-148.88;100.00;-17125.47;5057909;28;20059;-82
2024/01/06 05:41:23;;;;;;;7.43;3.08;;;;;;;-148.88;100.00;-17125.47;5054725;28;20108;-81
2024/01/06 05:43:48;;;;;;;9.32;3.33;;;;;;;-148.88;100.00;-17125.47;5054048;28;20024;-81
2024/01/06 05:46:23;;;;;;;6.88;3.20;;;;;;;-148.88;100.00;-17125.47;5054800;28;20442;-81
2024/01/06 05:48:49;;;;;;;6.72;3.72;;;;;;;-148.88;100.00;-17125.47;5054474;28;20067;-81
2024/01/06 05:51:14;;;;;;;11.30;3.15;;;;;;;-148.88;100.00;-17125.47;5054217;28;20395;-81
2024/01/06 05:53:39;;;;;;;5.88;2.55;;;;;;;-148.88;100.00;-17125.47;5054834;28;20484;-81
2024/01/06 05:56:05;;;;;;;8.50;3.15;;;;;;;-148.88;100.00;-17125.47;5034774;28;20059;-81
2024/01/06 05:58:30;;;;;;;9.13;2.97;;;;;;;-148.88;100.00;-17125.47;5034862;28;20086;-81
2024/01/06 06:00:56;;;;;;;9.18;3.72;;;;;;;-148.88;100.00;-17125.47;5052687;28;20021;-81
2024/01/06 06:03:21;;;;;;;6.90;2.47;;;;;;;-148.88;100.00;-17125.47;5052583;28;20484;-81
2024/01/06 06:05:46;;;;;;;7.25;2.70;;;;;;;-148.88;100.00;-17125.47;5052935;28;20021;-81
2024/01/06 06:08:12;;;;;;;8.35;2.70;;;;;;;-148.88;100.00;-17125.47;5053348;28;20538;-81
2024/01/06 06:10:41;;;;;;;6.85;2.25;;;;;;;-148.88;100.00;-17125.47;5035316;28;20480;-81
2024/01/06 06:13:10;;;;;;;6.60;3.15;;;;;;;-148.88;100.00;-17125.47;5035637;28;20017;-81
2024/01/06 06:15:36;;;;;;;6.65;2.55;;;;;;;-148.88;100.00;-17125.47;5041269;28;20024;-82
2024/01/06 06:18:01;;;;;;;6.07;2.88;;;;;;;-148.88;100.00;-17125.47;5061913;28;20070;-82
2024/01/06 06:20:26;;;;;;;9.20;2.75;;;;;;;-148.88;100.00;-17125.47;5060883;28;20502;-82
2024/01/06 06:22:52;;;;;;;9.00;2.83;;;;;;;-148.88;100.00;-17125.47;5060473;28;20051;-82
2024/01/06 06:25:17;;;;;;;12.63;2.88;;;;;;;-148.88;100.00;-17125.47;5060720;28;20472;-82
2024/01/06 06:27:42;;;;;;;8.88;3.30;;;;;;;-148.88;100.00;-17125.47;5060263;28;20106;-82
2024/01/06 06:30:08;;;;;;;8.65;2.97;;;;;;;-148.88;100.00;-17125.47;5060859;28;20027;-81
2024/01/06 06:32:33;;;;;;;10.43;2.90;;;;;;;-148.88;100.00;-17125.47;5060700;28;20036;-81
2024/01/06 06:34:59;;;;;;;10.10;3.50;;;;;;;-148.88;100.00;-17125.47;5061619;28;20096;-82
2024/01/06 06:37:24;;;;;;;10.23;3.83;;;;;;;-148.88;100.00;-17125.47;5041512;28;20035;-81
2024/01/06 06:39:49;;;;;;;9.95;3.33;;;;;;;-148.88;100.00;-17125.47;5059768;28;20021;-82
2024/01/06 06:42:15;;;;;;;10.60;3.50;;;;;;;-148.88;100.00;-17125.47;5059013;28;20047;-81
2024/01/06 06:44:40;;;;;;;9.95;3.20;;;;;;;-148.88;100.00;-17125.47;5060439;28;20124;-82
2024/01/06 06:47:05;;;;;;;7.85;3.10;;;;;;;-148.88;100.00;-17125.47;5042343;28;20017;-81
2024/01/06 06:49:31;;;;;;;8.45;3.38;;;;;;;-148.88;100.00;-17125.47;5060348;28;20503;-82
2024/01/06 06:51:56;;;;;;;9.35;3.05;;;;;;;-148.88;100.00;-17125.47;5060463;28;20017;-82
2024/01/06 06:54:21;;;;;;;12.25;3.30;;;;;;;-148.88;100.00;-17125.47;5060365;28;20029;-82
2024/01/06 06:56:47;;;;;;;10.43;3.22;;;;;;;-148.88;100.00;-17125.47;5043299;28;20040;-82
2024/01/06 06:59:12;;;;;;;11.43;3.85;;;;;;;-148.88;100.00;-17125.47;5043676;28;20495;-82
2024/01/06 07:01:37;;;;;;;14.70;4.25;;;;;;;-148.88;100.00;-17125.47;5061175;28;20017;-81
2024/01/06 07:04:03;;;;;;;12.85;4.53;;;;;;;-148.88;100.00;-17125.47;5043466;28;20032;-81
2024/01/06 07:06:29;;;;;;;11.32;3.70;;;;;;;-148.88;100.00;-17125.47;5060214;28;20025;-80
2024/01/06 07:08:55;;;;;;;10.23;3.25;;;;;;;-148.88;100.00;-17125.47;5058109;28;20025;-81
2024/01/06 07:11:21;;;;;;;11.18;3.55;;;;;;;-148.88;100.00;-17125.47;5039952;28;20048;-81
2024/01/06 07:13:46;;;;;;;11.57;3.60;;;;;;;-148.88;100.00;-17125.47;5057794;28;20100;-81
2024/01/06 07:26:17;;;;;;;7.93;2.97;;;;;;;-148.88;100.00;-17125.47;5060385;28;20071;-81
2024/01/06 07:32:33;;;;;;;10.40;2.95;;;;;;;-148.88;100.00;-17125.47;5060717;28;20055;-81
2024/01/06 07:34:58;;;;;;;8.60;2.70;;;;;;;-148.88;100.00;-17125.47;5060779;28;20085;-81
2024/01/06 07:47:51;;;;;;;7.55;2.63;;;;;;;-148.88;100.00;-17125.47;5060157;28;20518;-81
2024/01/06 07:50:16;;;;;;;8.38;2.90;;;;;;;-148.88;100.00;-17125.47;5062824;28;20021;-81
2024/01/06 07:52:41;;;;;;;9.30;3.55;;;;;;;-148.88;100.00;-17125.47;5060040;28;20088;-81
2024/01/06 07:55:07;;;;;;;7.93;3.08;;;;;;;-148.88;100.00;-17125.47;5041655;28;20384;-81
2024/01/06 07:57:33;;;;;;;10.23;3.25;;;;;;;-148.88;100.00;-17125.47;5059594;28;20503;-81
2024/01/06 07:59:58;;;;;;;9.57;2.95;;;;;;;-148.88;100.00;-17125.47;5041085;28;20029;-81
2024/01/06 08:05:46;;;;;;;9.50;3.13;;;;;;;-148.88;100.00;-17125.47;5059244;28;20558;-81
2024/01/06 08:08:12;;;;;;;10.00;3.30;;;;;;;-148.88;100.00;-17125.47;5059000;28;20025;-81
2024/01/06 08:10:38;;;;;;;8.27;3.22;;;;;;;-148.88;100.00;-17125.47;5041469;28;20036;-81
2024/01/06 08:13:03;;;;;;;8.45;3.15;;;;;;;-148.88;100.00;-17125.47;5059137;28;20025;-81
2024/01/06 08:15:29;;;;;;;9.45;3.25;;;;;;;-148.88;100.00;-17125.47;5041373;28;20032;-81
2024/01/06 08:17:54;;;;;;;8.70;3.78;;;;;;;-148.88;100.00;-17125.47;5061223;28;20021;-82
2024/01/06 08:20:20;;;;;;;9.85;3.60;;;;;;;-148.88;100.00;-17125.47;5062607;28;20036;-81
2024/01/06 08:22:45;;;;;;;10.15;4.15;;;;;;;-148.88;100.00;-17125.47;5061887;28;20025;-81
2024/01/06 08:25:11;;;;;;;10.48;3.72;;;;;;;-148.88;100.00;-17125.47;5060624;28;20040;-81
2024/01/06 08:27:38;;;;;;;12.57;4.05;;;;;;;-148.88;100.00;-17125.47;5060111;28;20131;-81
2024/01/06 08:30:04;;;;;;;12.23;3.72;;;;;;;-148.88;100.00;-17125.47;5059080;28;20037;-81
2024/01/06 08:32:29;;;;;;;9.65;4.18;;;;;;;-148.88;100.00;-17125.47;5059779;28;20032;-82
2024/01/06 08:34:55;;;;;;;10.68;4.15;;;;;;;-148.88;100.00;-17125.47;5058598;28;20049;-81
2024/01/06 08:37:20;;;;;;;9.90;3.92;;;;;;;-148.88;100.00;-17125.47;5058218;28;20464;-81
2024/01/06 08:39:46;;;;;;;10.18;3.63;;;;;;;-148.88;100.00;-17125.47;5058860;28;20047;-81
2024/01/06 08:42:11;;;;;;;8.20;2.83;;;;;;;-148.88;100.00;-17125.47;5060214;28;20029;-81
2024/01/06 08:44:36;;;;;;;8.32;3.30;;;;;;;-148.88;100.00;-17125.47;5040695;28;20017;-81
2024/01/06 08:47:02;;;;;;;8.90;3.03;;;;;;;-148.88;100.00;-17125.47;5058634;28;20025;-83
2024/01/06 08:49:28;;;;;;;10.55;3.58;;;;;;;-148.88;100.00;-17125.47;5040882;28;20027;-82
2024/01/06 08:51:53;;;;;;;8.75;2.97;;;;;;;-148.88;100.00;-17125.47;5041491;28;20055;-81
2024/01/06 08:54:18;;;;;;;12.20;3.85;;;;;;;-148.88;100.00;-17125.47;5063650;28;20084;-81
2024/01/06 08:56:44;;;;;;;12.02;3.80;;;;;;;-148.88;100.00;-17125.47;5044010;28;20111;-81
2024/01/06 08:59:09;;;;;;;10.45;3.38;;;;;;;-148.88;100.00;-17125.47;5060897;28;20025;-81
2024/01/06 09:01:35;;;;;;;8.40;3.38;;;;;;;-148.88;100.00;-17125.47;5061121;28;20046;-81
2024/01/06 09:04:01;;;;;;;10.27;4.10;;;;;;;-148.88;100.00;-17125.47;5060954;28;20104;-81
2024/01/06 09:06:27;;;;;;;12.45;3.72;;;;;;;-148.88;100.00;-17125.47;5060345;28;20087;-81
2024/01/06 09:08:52;;;;;;;11.98;3.70;;;;;;;-148.88;100.00;-17125.47;5059080;28;20029;-81
2024/01/06 09:11:17;;;;;;;9.48;3.50;;;;;;;-148.88;100.00;-17125.47;5041440;28;20028;-81
2024/01/06 09:13:43;;;;;;;11.65;3.22;;;;;;;-148.88;100.00;-17125.47;5059196;28;20021;-81
2024/01/06 09:16:09;;;;;;;8.80;3.28;;;;;;;-148.88;100.00;-17125.47;5040308;28;20016;-81
2024/01/06 09:18:34;;;;;;;10.88;3.67;;;;;;;-148.88;100.00;-17125.47;5059087;28;20399;-80
2024/01/06 09:20:59;;;;;;;9.40;3.47;;;;;;;-148.88;100.00;-17125.47;5058956;28;20028;-81
2024/01/06 09:23:25;;;;;;;7.38;2.95;;;;;;;-148.88;100.00;-17125.47;5058924;28;20025;-81
2024/01/06 09:25:51;;;;;;;7.90;3.35;;;;;;;-148.88;100.00;-17125.47;5058770;28;20082;-82
2024/01/06 09:28:17;;;;;;;9.57;2.92;;;;;;;-148.88;100.00;-17125.47;5060220;28;20021;-81
2024/01/06 09:30:42;;;;;;;9.15;3.95;;;;;;;-148.88;100.00;-17125.47;5059460;28;20043;-82
2024/01/06 09:33:10;;;;;;;9.98;3.70;;;;;;;-148.88;100.00;-17125.47;5058674;28;20084;-82
2024/01/06 09:35:36;;;;;;;8.93;3.53;;;;;;;-148.88;100.00;-17125.47;5040874;28;20036;-82
2024/01/06 09:38:01;;;;;;;10.85;3.72;;;;;;;-148.88;100.00;-17125.47;5059588;28;20472;-82
2024/01/06 09:40:26;;;;;;;9.93;3.78;;;;;;;-148.88;100.00;-17125.47;5060459;28;20035;-82
2024/01/06 09:42:53;;;;;;;10.65;4.13;;;;;;;-148.88;100.00;-17125.47;5060471;28;20031;-82
2024/01/06 09:45:20;;;;;;;7.43;2.97;;;;;;;-148.88;100.00;-17125.47;5058860;28;20028;-82
2024/01/06 09:47:50;;;;;;;10.55;3.50;;;;;;;-148.88;100.00;-17125.47;5060104;28;20024;-82
2024/01/06 09:50:19;;;;;;;10.40;3.67;;;;;;;-148.88;100.00;-17125.47;5057247;28;20188;-82
2024/01/06 09:52:52;;;;;;;12.07;3.90;;;;;;;-148.88;100.00;-17125.47;5038717;28;20024;-82
2024/01/06 09:55:21;;;;;;;10.65;3.75;;;;;;;-148.88;100.00;-17125.47;5055151;28;20025;-82
2024/01/06 09:57:46;;;;;;;9.07;2.95;;;;;;;-148.88;100.00;-17125.47;5036379;28;20028;-82
2024/01/06 10:00:12;;;;;;;7.97;3.03;;;;;;;-148.88;100.00;-17125.47;5035974;28;20020;-82
2024/01/06 10:02:38;;;;;;;10.32;3.22;;;;;;;-148.88;100.00;-17125.47;5054441;28;20078;-82
2024/01/06 10:05:04;;;;;;;6.57;2.80;;;;;;;-148.88;100.00;-17125.47;5057837;28;20029;-83
2024/01/06 10:07:29;;;;;;;7.07;2.70;;;;;;;-148.88;100.00;-17125.47;5042934;28;20390;-82
2024/01/06 10:09:55;;;;;;;9.05;3.50;;;;;;;-148.88;100.00;-17125.47;5059475;28;20074;-80
2024/01/06 10:12:25;;;;;;;7.13;3.47;;;;;;;-148.88;100.00;-17125.47;5059467;28;20021;-82
2024/01/06 10:14:50;;;;;;;8.35;3.30;;;;;;;-148.88;100.00;-17125.47;5042543;28;20095;-82
2024/01/06 10:17:16;;;;;;;8.30;2.97;;;;;;;-148.88;100.00;-17125.47;5059673;28;20414;-82
2024/01/06 10:19:45;;;;;;;8.82;2.72;;;;;;;-148.88;100.00;-17125.47;5057386;28;20040;-82
2024/01/06 10:22:10;;;;;;;7.07;2.95;;;;;;;-148.88;100.00;-17125.47;5059414;28;20083;-82
2024/01/06 10:24:39;;;;;;;13.13;2.97;;;;;;;-148.88;100.00;-17125.47;5041958;28;20502;-83
2024/01/06 10:27:04;;;;;;;10.07;3.53;;;;;;;-148.88;100.00;-17125.47;5056026;28;20048;-83
2024/01/06 10:29:30;;;;;;;7.28;2.45;;;;;;;-148.88;100.00;-17125.47;5057462;28;20496;-83
2024/01/06 10:31:55;;;;;;;5.18;2.50;;;;;;;-148.88;100.00;-17125.47;5058180;28;20021;-82
2024/01/06 10:34:22;;;;;;;4.90;2.47;;;;;;;-148.88;100.00;-17125.47;5059071;28;20032;-84
2024/01/06 10:36:49;;;;;;;7.43;2.70;;;;;;;-148.88;100.00;-17125.47;5059760;28;20426;-84
2024/01/06 10:39:15;;;;;;;6.10;2.33;;;;;;;-148.88;100.00;-17125.47;5065108;28;20048;-84
2024/01/06 10:41:43;;;;;;;4.35;1.98;;;;;;;-148.88;100.00;-17125.47;5045498;28;20021;-83
2024/01/06 10:44:11;;;;;;;7.55;2.67;;;;;;;-148.88;100.00;-17125.47;5044432;28;20029;-84
2024/01/06 10:46:38;;;;;;;6.30;2.35;;;;;;;-148.88;100.00;-17125.47;5061981;28;20028;-82
2024/01/06 10:49:05;;;;;;;5.35;2.28;;;;;;;-148.88;100.00;-17125.47;5061639;28;20488;-83
2024/01/06 10:51:33;;;;;;;5.57;2.58;;;;;;;-148.88;100.00;-17125.47;5043143;28;20025;-83
2024/01/06 10:54:01;;;;;;;4.47;2.22;;;;;;;-148.88;100.00;-17125.47;5063009;22;20045;-85
2024/01/06 10:56:26;;;;;;;6.32;1.95;;;;;;;-148.88;100.00;-17125.47;5064510;28;20029;-85
2024/01/06 10:58:53;;;;;;;7.97;2.53;;;;;;;-148.88;100.00;-17125.47;5077190;28;20025;-85
2024/01/06 11:07:18;;;;;;;5.20;2.10;;;;;;;-148.88;100.00;-17125.47;5045638;28;20107;-87
2024/01/06 11:09:53;;;;;;;3.42;1.58;;;;;;;-148.88;100.00;-17125.47;5039368;28;20029;-87
2024/01/06 11:12:22;;;;;;;5.15;2.53;;;;;;;-148.88;100.00;-17125.47;5039253;28;20426;-86
2024/01/06 11:14:47;;;;;;;8.18;2.70;;;;;;;-148.88;100.00;-17125.47;5037457;28;20053;-85
2024/01/06 11:17:13;;;;;;;7.68;3.13;;;;;;;-148.88;100.00;-17125.47;5040975;28;20040;-86
2024/01/06 11:19:38;;;;;;;6.10;2.95;;;;;;;-148.88;100.00;-17125.47;5038034;28;20032;-87
2024/01/06 11:22:30;;;;;;;6.90;3.00;;;;;;;-148.88;100.00;-17125.47;5039398;28;20049;-86
2024/01/06 11:24:57;;;;;;;6.82;2.60;;;;;;;-148.88;100.00;-17125.47;5037467;28;20057;-86
2024/01/06 11:27:28;;;;;;;6.35;2.35;;;;;;;-148.88;100.00;-17125.47;5041878;28;20029;-86
2024/01/06 11:29:55;;;;;;;6.25;2.15;;;;;;;-148.88;100.00;-17125.47;5040159;28;20025;-86
2024/01/06 11:32:25;;;;;;;4.80;2.20;;;;;;;-148.88;100.00;-17125.47;5037116;28;20033;-86
2024/01/06 11:34:52;;;;;;;4.80;1.98;;;;;;;-148.88;100.00;-17125.47;5034709;28;20032;-86
2024/01/06 11:37:23;;;;;;;6.18;2.67;;;;;;;-148.88;100.00;-17125.47;5036461;28;20014;-86
2024/01/06 11:39:53;;;;;;;5.05;2.42;;;;;;;-148.88;100.00;-17125.47;5037210;28;20107;-86
2024/01/06 11:42:19;;;;;;;7.30;2.85;;;;;;;-148.88;100.00;-17125.47;5036665;28;20021;-87
2024/01/06 11:44:49;;;;;;;7.03;2.47;;;;;;;-148.88;100.00;-17125.47;5036430;28;20112;-87
2024/01/06 11:47:17;;;;;;;4.97;1.80;;;;;;;-148.88;100.00;-17125.47;5035187;28;20032;-88
2024/01/06 11:49:45;;;;;;;5.35;2.28;;;;;;;-148.88;100.00;-17125.47;5037276;28;20072;-87
2024/01/06 11:52:12;;;;;;;4.15;1.95;;;;;;;-148.88;100.00;-17125.47;5035502;28;20036;-86
2024/01/06 11:54:38;;;;;;;7.10;2.40;;;;;;;-148.88;100.00;-17125.47;5035733;28;20036;-86
2024/01/06 11:57:03;;;;;;;5.72;2.38;;;;;;;-148.88;100.00;-17125.47;5036178;28;20024;-86
2024/01/06 11:59:30;;;;;;;6.95;2.45;;;;;;;-148.88;100.00;-17125.47;5036479;28;20116;-89
2024/01/06 12:01:55;;;;;;;9.40;2.17;;;;;;;-148.88;100.00;-17125.47;5035787;28;20021;-89
2024/01/06 12:04:22;;;;;;;5.97;2.67;;;;;;;-148.88;100.00;-17125.47;5034152;28;20028;-89
2024/01/06 12:06:50;;;;;;;9.32;2.67;;;;;;;-148.88;100.00;-17125.47;5033904;28;20022;-89
2024/01/06 12:09:18;;;;;;;7.63;2.53;;;;;;;-148.88;100.00;-17125.47;5033683;28;20033;-90
2024/01/06 12:11:45;;;;;;;11.40;2.97;;;;;;;-148.88;100.00;-17125.47;5034043;28;20074;-89
2024/01/06 12:14:10;;;;;;;5.60;2.90;;;;;;;-148.88;100.00;-17125.47;5033890;28;20032;-89
2024/01/06 12:16:36;;;;;;;8.20;2.10;;;;;;;-148.88;100.00;-17125.47;5033379;28;20022;-90
2024/01/06 12:19:03;;;;;;;8.38;2.33;;;;;;;-148.88;100.00;-17125.47;5033215;28;20116;-89
2024/01/06 12:21:30;;;;;;;6.28;2.90;;;;;;;-148.88;100.00;-17125.47;5033579;28;20104;-89
2024/01/06 12:24:17;;;;;;;5.93;2.53;;;;;;;-148.88;100.00;-17125.47;5034368;28;20021;-89